sensor_id;sensor_type;location;lat;lon;timestamp;P1;durP1;ratioP1;P2;durP2;ratioP2
70532;SDS011;58088;51.186;17.130;2022-10-31T00:01:19;29.50;;;15.00;;
70532;SDS011;58088;51.186;17.130;2022-10-31T00:03:48;26.80;;;14.90;;
70532;SDS011;58088;51.186;17.130;2022-10-31T00:06:15;27.70;;;13.90;;
70532;SDS011;58088;51.186;17.130;2022-10-31T00:08:51;25.50;;;14.10;;
70532;SDS011;58088;51.186;17.130;2022-10-31T00:11:22;24.40;;;13.60;;
70532;SDS011;58088;51.186;17.130;2022-10-31T00:13:49;27.50;;;14.10;;
70532;SDS011;58088;51.186;17.130;2022-10-31T00:16:17;28.00;;;14.80;;
70532;SDS011;58088;51.186;17.130;2022-10-31T00:18:53;28.20;;;13.90;;
70532;SDS011;58088;51.186;17.130;2022-10-31T00:21:23;26.10;;;13.70;;
70532;SDS011;58088;51.186;17.130;2022-10-31T00:23:50;27.90;;;14.10;;
70532;SDS011;58088;51.186;17.130;2022-10-31T00:26:17;27.60;;;13.30;;
70532;SDS011;58088;51.186;17.130;2022-10-31T00:28:44;24.30;;;14.00;;
70532;SDS011;58088;51.186;17.130;2022-10-31T00:31:12;27.00;;;14.60;;
70532;SDS011;58088;51.186;17.130;2022-10-31T00:33:40;25.40;;;13.30;;
70532;SDS011;58088;51.186;17.130;2022-10-31T00:36:10;24.00;;;13.90;;
70532;SDS011;58088;51.186;17.130;2022-10-31T00:38:42;24.00;;;13.30;;
70532;SDS011;58088;51.186;17.130;2022-10-31T00:41:10;23.60;;;13.10;;
70532;SDS011;58088;51.186;17.130;2022-10-31T00:43:41;25.60;;;13.80;;
70532;SDS011;58088;51.186;17.130;2022-10-31T00:46:08;26.40;;;14.40;;
70532;SDS011;58088;51.186;17.130;2022-10-31T00:48:35;28.80;;;15.50;;
70532;SDS011;58088;51.186;17.130;2022-10-31T00:51:01;26.80;;;14.50;;
70532;SDS011;58088;51.186;17.130;2022-10-31T00:53:28;26.70;;;15.00;;
70532;SDS011;58088;51.186;17.130;2022-10-31T00:55:54;29.10;;;14.60;;
70532;SDS011;58088;51.186;17.130;2022-10-31T00:58:20;31.30;;;15.90;;
70532;SDS011;58088;51.186;17.130;2022-10-31T01:00:48;30.40;;;14.90;;
70532;SDS011;58088;51.186;17.130;2022-10-31T01:03:25;29.70;;;14.30;;
70532;SDS011;58088;51.186;17.130;2022-10-31T01:06:03;21.00;;;13.40;;
70532;SDS011;58088;51.186;17.130;2022-10-31T01:08:35;27.80;;;14.00;;
70532;SDS011;58088;51.186;17.130;2022-10-31T01:11:22;25.90;;;14.60;;
70532;SDS011;58088;51.186;17.130;2022-10-31T01:13:53;21.70;;;13.60;;
70532;SDS011;58088;51.186;17.130;2022-10-31T01:16:22;27.70;;;15.40;;
70532;SDS011;58088;51.186;17.130;2022-10-31T01:18:51;26.60;;;15.20;;
70532;SDS011;58088;51.186;17.130;2022-10-31T01:21:21;24.20;;;13.90;;
70532;SDS011;58088;51.186;17.130;2022-10-31T01:23:50;25.70;;;14.10;;
70532;SDS011;58088;51.186;17.130;2022-10-31T01:26:21;23.00;;;13.60;;
70532;SDS011;58088;51.186;17.130;2022-10-31T01:28:55;22.90;;;12.10;;
70532;SDS011;58088;51.186;17.130;2022-10-31T01:31:27;21.10;;;12.60;;
70532;SDS011;58088;51.186;17.130;2022-10-31T01:33:55;21.30;;;11.90;;
70532;SDS011;58088;51.186;17.130;2022-10-31T01:39:07;24.30;;;14.20;;
70532;SDS011;58088;51.186;17.130;2022-10-31T01:41:38;26.20;;;14.40;;
70532;SDS011;58088;51.186;17.130;2022-10-31T01:46:44;24.20;;;13.00;;
70532;SDS011;58088;51.186;17.130;2022-10-31T01:49:36;23.60;;;13.60;;
70532;SDS011;58088;51.186;17.130;2022-10-31T01:52:45;22.70;;;12.80;;
70532;SDS011;58088;51.186;17.130;2022-10-31T01:57:48;19.70;;;11.40;;
70532;SDS011;58088;51.186;17.130;2022-10-31T02:00:20;18.40;;;11.50;;
70532;SDS011;58088;51.186;17.130;2022-10-31T02:02:49;19.40;;;12.00;;
70532;SDS011;58088;51.186;17.130;2022-10-31T02:05:20;18.80;;;11.30;;
70532;SDS011;58088;51.186;17.130;2022-10-31T02:07:59;18.30;;;11.40;;
70532;SDS011;58088;51.186;17.130;2022-10-31T02:10:31;20.90;;;11.50;;
70532;SDS011;58088;51.186;17.130;2022-10-31T02:13:02;18.30;;;11.70;;
70532;SDS011;58088;51.186;17.130;2022-10-31T02:15:31;20.20;;;11.60;;
70532;SDS011;58088;51.186;17.130;2022-10-31T02:17:58;18.50;;;11.60;;
70532;SDS011;58088;51.186;17.130;2022-10-31T02:20:29;18.50;;;11.30;;
70532;SDS011;58088;51.186;17.130;2022-10-31T02:23:09;21.20;;;12.20;;
70532;SDS011;58088;51.186;17.130;2022-10-31T02:29:22;20.60;;;11.10;;
70532;SDS011;58088;51.186;17.130;2022-10-31T02:32:13;18.50;;;10.90;;
70532;SDS011;58088;51.186;17.130;2022-10-31T02:35:09;19.70;;;11.30;;
70532;SDS011;58088;51.186;17.130;2022-10-31T02:40:37;18.70;;;11.90;;
70532;SDS011;58088;51.186;17.130;2022-10-31T02:47:03;19.40;;;10.70;;
70532;SDS011;58088;51.186;17.130;2022-10-31T02:50:00;19.50;;;11.00;;
70532;SDS011;58088;51.186;17.130;2022-10-31T02:52:34;18.40;;;10.40;;
70532;SDS011;58088;51.186;17.130;2022-10-31T02:55:10;20.00;;;10.40;;
70532;SDS011;58088;51.186;17.130;2022-10-31T02:58:22;19.30;;;10.90;;
70532;SDS011;58088;51.186;17.130;2022-10-31T03:04:26;18.10;;;10.30;;
70532;SDS011;58088;51.186;17.130;2022-10-31T03:19:30;17.50;;;10.70;;
70532;SDS011;58088;51.186;17.130;2022-10-31T03:22:12;17.60;;;9.70;;
70532;SDS011;58088;51.186;17.130;2022-10-31T03:24:43;16.30;;;9.80;;
70532;SDS011;58088;51.186;17.130;2022-10-31T03:27:16;19.00;;;9.70;;
70532;SDS011;58088;51.186;17.130;2022-10-31T03:29:48;20.40;;;11.20;;
70532;SDS011;58088;51.186;17.130;2022-10-31T03:32:28;19.00;;;11.00;;
70532;SDS011;58088;51.186;17.130;2022-10-31T03:35:00;18.80;;;10.00;;
70532;SDS011;58088;51.186;17.130;2022-10-31T03:37:33;18.60;;;10.20;;
70532;SDS011;58088;51.186;17.130;2022-10-31T03:40:03;19.50;;;11.00;;
70532;SDS011;58088;51.186;17.130;2022-10-31T03:42:34;18.70;;;10.90;;
70532;SDS011;58088;51.186;17.130;2022-10-31T03:47:40;18.60;;;11.20;;
70532;SDS011;58088;51.186;17.130;2022-10-31T03:50:09;20.80;;;11.90;;
70532;SDS011;58088;51.186;17.130;2022-10-31T03:52:57;17.70;;;10.30;;
70532;SDS011;58088;51.186;17.130;2022-10-31T03:55:51;19.30;;;10.40;;
70532;SDS011;58088;51.186;17.130;2022-10-31T03:58:33;16.00;;;10.00;;
70532;SDS011;58088;51.186;17.130;2022-10-31T04:01:06;18.80;;;10.90;;
70532;SDS011;58088;51.186;17.130;2022-10-31T04:03:39;18.80;;;10.20;;
70532;SDS011;58088;51.186;17.130;2022-10-31T04:06:09;19.40;;;11.40;;
70532;SDS011;58088;51.186;17.130;2022-10-31T04:08:41;19.30;;;11.40;;
70532;SDS011;58088;51.186;17.130;2022-10-31T04:11:16;21.50;;;11.60;;
70532;SDS011;58088;51.186;17.130;2022-10-31T04:13:48;21.40;;;11.80;;
70532;SDS011;58088;51.186;17.130;2022-10-31T04:16:20;20.20;;;11.40;;
70532;SDS011;58088;51.186;17.130;2022-10-31T04:18:48;17.10;;;10.30;;
70532;SDS011;58088;51.186;17.130;2022-10-31T04:21:15;16.80;;;9.50;;
70532;SDS011;58088;51.186;17.130;2022-10-31T04:23:42;18.50;;;10.60;;
70532;SDS011;58088;51.186;17.130;2022-10-31T04:26:20;16.80;;;9.80;;
70532;SDS011;58088;51.186;17.130;2022-10-31T04:28:46;17.80;;;9.90;;
70532;SDS011;58088;51.186;17.130;2022-10-31T04:31:14;20.60;;;10.70;;
70532;SDS011;58088;51.186;17.130;2022-10-31T04:33:41;18.90;;;11.20;;
70532;SDS011;58088;51.186;17.130;2022-10-31T04:36:07;19.40;;;11.80;;
70532;SDS011;58088;51.186;17.130;2022-10-31T04:38:34;22.00;;;12.60;;
70532;SDS011;58088;51.186;17.130;2022-10-31T04:41:01;18.90;;;11.90;;
70532;SDS011;58088;51.186;17.130;2022-10-31T04:43:51;20.70;;;10.90;;
70532;SDS011;58088;51.186;17.130;2022-10-31T04:46:17;19.00;;;11.10;;
70532;SDS011;58088;51.186;17.130;2022-10-31T04:48:43;18.20;;;11.30;;
70532;SDS011;58088;51.186;17.130;2022-10-31T04:51:10;19.90;;;12.10;;
70532;SDS011;58088;51.186;17.130;2022-10-31T04:53:36;18.10;;;11.00;;
70532;SDS011;58088;51.186;17.130;2022-10-31T04:56:21;19.40;;;11.80;;
70532;SDS011;58088;51.186;17.130;2022-10-31T04:58:52;16.80;;;9.50;;
70532;SDS011;58088;51.186;17.130;2022-10-31T05:01:19;19.30;;;9.60;;
70532;SDS011;58088;51.186;17.130;2022-10-31T05:03:45;17.20;;;10.20;;
70532;SDS011;58088;51.186;17.130;2022-10-31T05:06:11;18.80;;;10.50;;
70532;SDS011;58088;51.186;17.130;2022-10-31T05:08:39;16.70;;;9.90;;
70532;SDS011;58088;51.186;17.130;2022-10-31T05:11:05;19.30;;;11.20;;
70532;SDS011;58088;51.186;17.130;2022-10-31T05:13:32;20.20;;;10.60;;
70532;SDS011;58088;51.186;17.130;2022-10-31T05:16:11;22.60;;;10.90;;
70532;SDS011;58088;51.186;17.130;2022-10-31T05:18:46;18.90;;;10.70;;
70532;SDS011;58088;51.186;17.130;2022-10-31T05:21:31;22.00;;;11.40;;
70532;SDS011;58088;51.186;17.130;2022-10-31T05:24:00;20.10;;;11.00;;
70532;SDS011;58088;51.186;17.130;2022-10-31T05:26:27;17.20;;;10.30;;
70532;SDS011;58088;51.186;17.130;2022-10-31T05:28:54;15.00;;;8.80;;
70532;SDS011;58088;51.186;17.130;2022-10-31T05:31:20;14.50;;;8.50;;
70532;SDS011;58088;51.186;17.130;2022-10-31T05:33:47;12.70;;;8.30;;
70532;SDS011;58088;51.186;17.130;2022-10-31T05:36:32;16.50;;;8.50;;
70532;SDS011;58088;51.186;17.130;2022-10-31T05:39:18;17.30;;;9.80;;
70532;SDS011;58088;51.186;17.130;2022-10-31T05:41:50;20.10;;;10.70;;
70532;SDS011;58088;51.186;17.130;2022-10-31T05:44:21;22.50;;;11.70;;
70532;SDS011;58088;51.186;17.130;2022-10-31T05:46:55;22.10;;;11.80;;
70532;SDS011;58088;51.186;17.130;2022-10-31T05:49:30;21.20;;;10.70;;
70532;SDS011;58088;51.186;17.130;2022-10-31T05:51:56;17.30;;;10.70;;
70532;SDS011;58088;51.186;17.130;2022-10-31T05:54:29;20.50;;;11.70;;
70532;SDS011;58088;51.186;17.130;2022-10-31T05:56:55;19.40;;;11.10;;
70532;SDS011;58088;51.186;17.130;2022-10-31T05:59:21;25.70;;;12.30;;
70532;SDS011;58088;51.186;17.130;2022-10-31T06:01:47;23.30;;;11.60;;
70532;SDS011;58088;51.186;17.130;2022-10-31T06:04:52;19.20;;;10.40;;
70532;SDS011;58088;51.186;17.130;2022-10-31T06:07:18;22.10;;;10.80;;
70532;SDS011;58088;51.186;17.130;2022-10-31T06:09:44;19.80;;;10.50;;
70532;SDS011;58088;51.186;17.130;2022-10-31T06:12:11;18.80;;;10.80;;
70532;SDS011;58088;51.186;17.130;2022-10-31T06:14:56;22.10;;;10.90;;
70532;SDS011;58088;51.186;17.130;2022-10-31T06:17:23;21.50;;;11.10;;
70532;SDS011;58088;51.186;17.130;2022-10-31T06:19:49;18.30;;;10.70;;
70532;SDS011;58088;51.186;17.130;2022-10-31T06:22:19;22.30;;;11.60;;
70532;SDS011;58088;51.186;17.130;2022-10-31T06:24:45;21.10;;;11.70;;
70532;SDS011;58088;51.186;17.130;2022-10-31T06:27:26;22.30;;;12.00;;
70532;SDS011;58088;51.186;17.130;2022-10-31T06:29:53;21.80;;;12.00;;
70532;SDS011;58088;51.186;17.130;2022-10-31T06:32:28;23.30;;;12.30;;
70532;SDS011;58088;51.186;17.130;2022-10-31T06:34:55;29.80;;;13.10;;
70532;SDS011;58088;51.186;17.130;2022-10-31T06:37:22;31.00;;;13.80;;
70532;SDS011;58088;51.186;17.130;2022-10-31T06:39:48;34.90;;;16.90;;
70532;SDS011;58088;51.186;17.130;2022-10-31T06:42:16;37.80;;;17.70;;
70532;SDS011;58088;51.186;17.130;2022-10-31T06:44:42;35.10;;;16.90;;
70532;SDS011;58088;51.186;17.130;2022-10-31T06:47:28;46.20;;;20.00;;
70532;SDS011;58088;51.186;17.130;2022-10-31T06:50:15;36.70;;;16.90;;
70532;SDS011;58088;51.186;17.130;2022-10-31T06:52:41;35.00;;;16.30;;
70532;SDS011;58088;51.186;17.130;2022-10-31T06:55:08;28.70;;;14.00;;
70532;SDS011;58088;51.186;17.130;2022-10-31T06:57:34;27.20;;;13.90;;
70532;SDS011;58088;51.186;17.130;2022-10-31T07:00:00;25.60;;;13.30;;
70532;SDS011;58088;51.186;17.130;2022-10-31T07:02:42;24.20;;;11.70;;
70532;SDS011;58088;51.186;17.130;2022-10-31T07:05:08;22.70;;;12.70;;
70532;SDS011;58088;51.186;17.130;2022-10-31T07:07:34;24.20;;;13.00;;
70532;SDS011;58088;51.186;17.130;2022-10-31T07:10:02;22.80;;;11.60;;
70532;SDS011;58088;51.186;17.130;2022-10-31T07:12:46;17.30;;;10.70;;
70532;SDS011;58088;51.186;17.130;2022-10-31T07:15:12;18.80;;;10.30;;
70532;SDS011;58088;51.186;17.130;2022-10-31T07:17:39;17.50;;;11.00;;
70532;SDS011;58088;51.186;17.130;2022-10-31T07:20:07;19.40;;;11.70;;
70532;SDS011;58088;51.186;17.130;2022-10-31T07:22:35;16.00;;;10.60;;
70532;SDS011;58088;51.186;17.130;2022-10-31T07:25:04;17.30;;;10.70;;
70532;SDS011;58088;51.186;17.130;2022-10-31T07:27:49;16.60;;;10.40;;
70532;SDS011;58088;51.186;17.130;2022-10-31T07:30:16;17.80;;;11.00;;
70532;SDS011;58088;51.186;17.130;2022-10-31T07:32:48;18.30;;;10.80;;
70532;SDS011;58088;51.186;17.130;2022-10-31T07:35:23;20.30;;;10.90;;
70532;SDS011;58088;51.186;17.130;2022-10-31T07:37:56;19.20;;;11.40;;
70532;SDS011;58088;51.186;17.130;2022-10-31T07:40:24;18.30;;;10.60;;
70532;SDS011;58088;51.186;17.130;2022-10-31T07:42:52;18.20;;;11.70;;
70532;SDS011;58088;51.186;17.130;2022-10-31T07:45:37;17.60;;;11.50;;
70532;SDS011;58088;51.186;17.130;2022-10-31T07:48:29;17.10;;;10.80;;
70532;SDS011;58088;51.186;17.130;2022-10-31T07:51:31;20.30;;;10.80;;
70532;SDS011;58088;51.186;17.130;2022-10-31T07:54:15;17.30;;;11.00;;
70532;SDS011;58088;51.186;17.130;2022-10-31T07:56:42;19.20;;;11.90;;
70532;SDS011;58088;51.186;17.130;2022-10-31T07:59:08;18.70;;;10.30;;
70532;SDS011;58088;51.186;17.130;2022-10-31T08:01:35;17.00;;;10.50;;
70532;SDS011;58088;51.186;17.130;2022-10-31T08:04:35;20.00;;;10.20;;
70532;SDS011;58088;51.186;17.130;2022-10-31T08:07:20;18.70;;;9.60;;
70532;SDS011;58088;51.186;17.130;2022-10-31T08:09:52;20.20;;;10.90;;
70532;SDS011;58088;51.186;17.130;2022-10-31T08:12:20;19.60;;;10.80;;
70532;SDS011;58088;51.186;17.130;2022-10-31T08:14:46;19.90;;;11.10;;
70532;SDS011;58088;51.186;17.130;2022-10-31T08:17:14;19.90;;;10.40;;
70532;SDS011;58088;51.186;17.130;2022-10-31T08:19:51;16.90;;;10.10;;
70532;SDS011;58088;51.186;17.130;2022-10-31T08:22:19;18.10;;;9.70;;
70532;SDS011;58088;51.186;17.130;2022-10-31T08:24:47;22.40;;;10.80;;
70532;SDS011;58088;51.186;17.130;2022-10-31T08:27:13;17.70;;;9.70;;
70532;SDS011;58088;51.186;17.130;2022-10-31T08:29:39;17.10;;;10.00;;
70532;SDS011;58088;51.186;17.130;2022-10-31T08:32:06;20.60;;;11.10;;
70532;SDS011;58088;51.186;17.130;2022-10-31T08:34:50;17.90;;;9.80;;
70532;SDS011;58088;51.186;17.130;2022-10-31T08:37:37;17.30;;;10.10;;
70532;SDS011;58088;51.186;17.130;2022-10-31T08:40:04;15.20;;;8.00;;
70532;SDS011;58088;51.186;17.130;2022-10-31T08:42:33;15.40;;;8.20;;
70532;SDS011;58088;51.186;17.130;2022-10-31T08:45:00;17.60;;;7.70;;
70532;SDS011;58088;51.186;17.130;2022-10-31T08:47:26;11.90;;;6.30;;
70532;SDS011;58088;51.186;17.130;2022-10-31T08:49:54;12.20;;;5.30;;
70532;SDS011;58088;51.186;17.130;2022-10-31T08:52:24;11.90;;;6.10;;
70532;SDS011;58088;51.186;17.130;2022-10-31T08:54:52;13.50;;;5.80;;
70532;SDS011;58088;51.186;17.130;2022-10-31T08:57:57;12.50;;;5.60;;
70532;SDS011;58088;51.186;17.130;2022-10-31T09:00:24;11.60;;;6.10;;
70532;SDS011;58088;51.186;17.130;2022-10-31T09:02:57;10.50;;;5.80;;
70532;SDS011;58088;51.186;17.130;2022-10-31T09:05:25;13.60;;;5.60;;
70532;SDS011;58088;51.186;17.130;2022-10-31T09:07:59;9.50;;;5.00;;
70532;SDS011;58088;51.186;17.130;2022-10-31T09:10:28;12.20;;;4.60;;
70532;SDS011;58088;51.186;17.130;2022-10-31T09:13:01;10.70;;;5.00;;
70532;SDS011;58088;51.186;17.130;2022-10-31T09:16:04;12.60;;;5.50;;
70532;SDS011;58088;51.186;17.130;2022-10-31T09:18:31;12.80;;;5.50;;
70532;SDS011;58088;51.186;17.130;2022-10-31T09:20:59;10.20;;;5.20;;
70532;SDS011;58088;51.186;17.130;2022-10-31T09:23:27;11.10;;;4.60;;
70532;SDS011;58088;51.186;17.130;2022-10-31T09:25:55;9.30;;;4.50;;
70532;SDS011;58088;51.186;17.130;2022-10-31T09:28:30;9.40;;;4.30;;
70532;SDS011;58088;51.186;17.130;2022-10-31T09:31:01;9.90;;;4.30;;
70532;SDS011;58088;51.186;17.130;2022-10-31T09:33:49;11.50;;;5.70;;
70532;SDS011;58088;51.186;17.130;2022-10-31T09:36:37;9.80;;;5.00;;
70532;SDS011;58088;51.186;17.130;2022-10-31T09:39:13;11.40;;;4.50;;
70532;SDS011;58088;51.186;17.130;2022-10-31T09:44:51;9.20;;;5.10;;
70532;SDS011;58088;51.186;17.130;2022-10-31T09:48:00;10.90;;;4.90;;
70532;SDS011;58088;51.186;17.130;2022-10-31T09:50:50;12.50;;;5.50;;
70532;SDS011;58088;51.186;17.130;2022-10-31T09:56:22;9.20;;;5.10;;
70532;SDS011;58088;51.186;17.130;2022-10-31T09:58:54;11.00;;;5.10;;
70532;SDS011;58088;51.186;17.130;2022-10-31T10:28:20;9.30;;;4.60;;
70532;SDS011;58088;51.186;17.130;2022-10-31T10:31:12;7.60;;;3.70;;
70532;SDS011;58088;51.186;17.130;2022-10-31T10:33:59;9.20;;;4.10;;
70532;SDS011;58088;51.186;17.130;2022-10-31T10:36:43;10.60;;;4.20;;
70532;SDS011;58088;51.186;17.130;2022-10-31T10:39:25;11.40;;;4.60;;
70532;SDS011;58088;51.186;17.130;2022-10-31T10:41:58;9.80;;;4.50;;
70532;SDS011;58088;51.186;17.130;2022-10-31T10:44:47;10.70;;;4.40;;
70532;SDS011;58088;51.186;17.130;2022-10-31T10:47:42;8.10;;;4.20;;
70532;SDS011;58088;51.186;17.130;2022-10-31T10:50:19;9.50;;;4.40;;
70532;SDS011;58088;51.186;17.130;2022-10-31T10:53:09;8.60;;;3.50;;
70532;SDS011;58088;51.186;17.130;2022-10-31T10:55:55;8.30;;;3.20;;
70532;SDS011;58088;51.186;17.130;2022-10-31T10:58:28;12.90;;;4.60;;
70532;SDS011;58088;51.186;17.130;2022-10-31T11:00:54;10.10;;;4.40;;
70532;SDS011;58088;51.186;17.130;2022-10-31T11:03:21;10.20;;;4.10;;
70532;SDS011;58088;51.186;17.130;2022-10-31T11:05:53;9.00;;;3.90;;
70532;SDS011;58088;51.186;17.130;2022-10-31T11:08:31;11.40;;;4.80;;
70532;SDS011;58088;51.186;17.130;2022-10-31T11:14:05;10.50;;;4.70;;
70532;SDS011;58088;51.186;17.130;2022-10-31T11:16:40;9.40;;;3.50;;
70532;SDS011;58088;51.186;17.130;2022-10-31T11:21:41;14.30;;;4.50;;
70532;SDS011;58088;51.186;17.130;2022-10-31T11:26:38;8.10;;;2.80;;
70532;SDS011;58088;51.186;17.130;2022-10-31T11:29:13;11.50;;;5.90;;
70532;SDS011;58088;51.186;17.130;2022-10-31T11:31:55;10.00;;;5.00;;
70532;SDS011;58088;51.186;17.130;2022-10-31T11:34:30;6.80;;;2.90;;
70532;SDS011;58088;51.186;17.130;2022-10-31T11:37:04;10.00;;;3.90;;
70532;SDS011;58088;51.186;17.130;2022-10-31T11:39:44;9.80;;;3.70;;
70532;SDS011;58088;51.186;17.130;2022-10-31T11:42:21;10.10;;;3.20;;
70532;SDS011;58088;51.186;17.130;2022-10-31T11:44:51;9.90;;;3.80;;
70532;SDS011;58088;51.186;17.130;2022-10-31T11:47:30;8.30;;;3.90;;
70532;SDS011;58088;51.186;17.130;2022-10-31T11:50:02;7.90;;;3.10;;
70532;SDS011;58088;51.186;17.130;2022-10-31T11:52:38;7.60;;;3.40;;
70532;SDS011;58088;51.186;17.130;2022-10-31T11:57:45;7.30;;;3.10;;
70532;SDS011;58088;51.186;17.130;2022-10-31T12:00:26;10.50;;;4.00;;
70532;SDS011;58088;51.186;17.130;2022-10-31T12:08:39;8.50;;;3.60;;
70532;SDS011;58088;51.186;17.130;2022-10-31T12:11:10;9.80;;;3.20;;
70532;SDS011;58088;51.186;17.130;2022-10-31T12:16:57;11.50;;;3.80;;
70532;SDS011;58088;51.186;17.130;2022-10-31T12:23:01;11.20;;;3.50;;
70532;SDS011;58088;51.186;17.130;2022-10-31T12:37:24;7.00;;;3.50;;
70532;SDS011;58088;51.186;17.130;2022-10-31T12:43:45;8.00;;;2.70;;
70532;SDS011;58088;51.186;17.130;2022-10-31T12:46:43;9.60;;;3.50;;
70532;SDS011;58088;51.186;17.130;2022-10-31T12:58:30;10.40;;;4.30;;
70532;SDS011;58088;51.186;17.130;2022-10-31T13:01:11;11.00;;;4.70;;
70532;SDS011;58088;51.186;17.130;2022-10-31T13:03:57;8.60;;;3.80;;
70532;SDS011;58088;51.186;17.130;2022-10-31T13:06:37;9.10;;;4.40;;
70532;SDS011;58088;51.186;17.130;2022-10-31T13:09:11;12.10;;;5.30;;
70532;SDS011;58088;51.186;17.130;2022-10-31T13:11:46;11.80;;;5.60;;
70532;SDS011;58088;51.186;17.130;2022-10-31T13:14:29;9.20;;;3.90;;
70532;SDS011;58088;51.186;17.130;2022-10-31T13:16:58;9.70;;;4.30;;
70532;SDS011;58088;51.186;17.130;2022-10-31T13:19:39;10.40;;;4.10;;
70532;SDS011;58088;51.186;17.130;2022-10-31T13:22:16;8.70;;;3.20;;
70532;SDS011;58088;51.186;17.130;2022-10-31T13:27:51;8.30;;;3.60;;
70532;SDS011;58088;51.186;17.130;2022-10-31T13:30:22;11.50;;;4.30;;
70532;SDS011;58088;51.186;17.130;2022-10-31T13:33:22;10.80;;;3.70;;
70532;SDS011;58088;51.186;17.130;2022-10-31T13:39:32;8.60;;;3.20;;
70532;SDS011;58088;51.186;17.130;2022-10-31T13:42:25;7.70;;;3.60;;
70532;SDS011;58088;51.186;17.130;2022-10-31T13:45:20;11.50;;;4.20;;
70532;SDS011;58088;51.186;17.130;2022-10-31T13:50:43;9.70;;;3.50;;
70532;SDS011;58088;51.186;17.130;2022-10-31T13:53:22;6.60;;;3.60;;
70532;SDS011;58088;51.186;17.130;2022-10-31T13:59:02;10.90;;;3.90;;
70532;SDS011;58088;51.186;17.130;2022-10-31T14:01:36;9.30;;;3.90;;
70532;SDS011;58088;51.186;17.130;2022-10-31T14:05:24;11.10;;;4.10;;
70532;SDS011;58088;51.186;17.130;2022-10-31T14:07:29;12.60;;;3.70;;
70532;SDS011;58088;51.186;17.130;2022-10-31T14:10:06;9.80;;;4.30;;
70532;SDS011;58088;51.186;17.130;2022-10-31T14:12:47;12.00;;;4.50;;
70532;SDS011;58088;51.186;17.130;2022-10-31T14:15:20;9.00;;;3.80;;
70532;SDS011;58088;51.186;17.130;2022-10-31T14:17:55;11.40;;;3.80;;
70532;SDS011;58088;51.186;17.130;2022-10-31T14:28:55;10.90;;;4.40;;
70532;SDS011;58088;51.186;17.130;2022-10-31T14:31:34;12.00;;;4.10;;
70532;SDS011;58088;51.186;17.130;2022-10-31T14:34:19;9.60;;;4.30;;
70532;SDS011;58088;51.186;17.130;2022-10-31T14:46:00;11.30;;;4.20;;
70532;SDS011;58088;51.186;17.130;2022-10-31T14:48:43;9.30;;;4.40;;
70532;SDS011;58088;51.186;17.130;2022-10-31T14:51:22;12.90;;;5.00;;
70532;SDS011;58088;51.186;17.130;2022-10-31T14:53:55;9.60;;;5.00;;
70532;SDS011;58088;51.186;17.130;2022-10-31T14:56:25;10.30;;;4.40;;
70532;SDS011;58088;51.186;17.130;2022-10-31T14:58:59;10.20;;;5.00;;
70532;SDS011;58088;51.186;17.130;2022-10-31T15:01:31;11.10;;;4.40;;
70532;SDS011;58088;51.186;17.130;2022-10-31T15:04:14;11.20;;;4.20;;
70532;SDS011;58088;51.186;17.130;2022-10-31T15:06:46;10.80;;;4.60;;
70532;SDS011;58088;51.186;17.130;2022-10-31T15:09:26;12.80;;;4.80;;
70532;SDS011;58088;51.186;17.130;2022-10-31T15:12:34;14.30;;;4.80;;
70532;SDS011;58088;51.186;17.130;2022-10-31T15:15:16;9.20;;;4.00;;
70532;SDS011;58088;51.186;17.130;2022-10-31T15:17:59;8.20;;;4.10;;
70532;SDS011;58088;51.186;17.130;2022-10-31T15:20:32;11.40;;;4.50;;
70532;SDS011;58088;51.186;17.130;2022-10-31T15:23:11;11.60;;;4.60;;
70532;SDS011;58088;51.186;17.130;2022-10-31T15:25:42;12.40;;;4.80;;
70532;SDS011;58088;51.186;17.130;2022-10-31T15:28:35;15.40;;;4.90;;
70532;SDS011;58088;51.186;17.130;2022-10-31T15:31:02;13.70;;;5.20;;
70532;SDS011;58088;51.186;17.130;2022-10-31T15:33:31;15.50;;;7.10;;
70532;SDS011;58088;51.186;17.130;2022-10-31T15:36:05;13.00;;;5.60;;
70532;SDS011;58088;51.186;17.130;2022-10-31T15:38:43;13.60;;;5.60;;
70532;SDS011;58088;51.186;17.130;2022-10-31T15:41:46;12.70;;;5.10;;
70532;SDS011;58088;51.186;17.130;2022-10-31T15:44:21;14.10;;;5.60;;
70532;SDS011;58088;51.186;17.130;2022-10-31T15:47:17;14.00;;;6.20;;
70532;SDS011;58088;51.186;17.130;2022-10-31T15:49:54;12.80;;;4.90;;
70532;SDS011;58088;51.186;17.130;2022-10-31T15:52:41;14.80;;;5.60;;
70532;SDS011;58088;51.186;17.130;2022-10-31T15:57:44;10.80;;;5.40;;
70532;SDS011;58088;51.186;17.130;2022-10-31T16:05:52;17.80;;;6.70;;
70532;SDS011;58088;51.186;17.130;2022-10-31T16:16:47;14.60;;;6.80;;
70532;SDS011;58088;51.186;17.130;2022-10-31T16:19:32;16.50;;;6.70;;
70532;SDS011;58088;51.186;17.130;2022-10-31T16:22:11;13.70;;;5.90;;
70532;SDS011;58088;51.186;17.130;2022-10-31T16:27:20;18.50;;;7.70;;
70532;SDS011;58088;51.186;17.130;2022-10-31T16:29:51;17.80;;;8.20;;
70532;SDS011;58088;51.186;17.130;2022-10-31T16:32:34;17.70;;;7.80;;
70532;SDS011;58088;51.186;17.130;2022-10-31T16:37:38;23.20;;;7.70;;
70532;SDS011;58088;51.186;17.130;2022-10-31T16:40:10;17.40;;;8.80;;
70532;SDS011;58088;51.186;17.130;2022-10-31T16:42:39;26.10;;;13.90;;
70532;SDS011;58088;51.186;17.130;2022-10-31T16:45:12;17.40;;;9.10;;
70532;SDS011;58088;51.186;17.130;2022-10-31T16:47:41;19.50;;;8.50;;
70532;SDS011;58088;51.186;17.130;2022-10-31T16:50:13;21.60;;;8.60;;
70532;SDS011;58088;51.186;17.130;2022-10-31T16:52:50;15.10;;;7.50;;
70532;SDS011;58088;51.186;17.130;2022-10-31T16:55:18;17.00;;;6.40;;
70532;SDS011;58088;51.186;17.130;2022-10-31T16:58:16;14.50;;;6.60;;
70532;SDS011;58088;51.186;17.130;2022-10-31T17:01:07;19.10;;;8.00;;
70532;SDS011;58088;51.186;17.130;2022-10-31T17:03:33;18.00;;;8.20;;
70532;SDS011;58088;51.186;17.130;2022-10-31T17:06:01;17.80;;;8.00;;
70532;SDS011;58088;51.186;17.130;2022-10-31T17:08:27;19.50;;;8.20;;
70532;SDS011;58088;51.186;17.130;2022-10-31T17:10:55;22.80;;;8.50;;
70532;SDS011;58088;51.186;17.130;2022-10-31T17:13:27;17.30;;;7.80;;
70532;SDS011;58088;51.186;17.130;2022-10-31T17:16:01;18.90;;;8.20;;
70532;SDS011;58088;51.186;17.130;2022-10-31T17:18:28;17.40;;;7.60;;
70532;SDS011;58088;51.186;17.130;2022-10-31T17:21:01;14.30;;;7.70;;
70532;SDS011;58088;51.186;17.130;2022-10-31T17:23:29;16.70;;;7.80;;
70532;SDS011;58088;51.186;17.130;2022-10-31T17:25:58;19.00;;;10.00;;
70532;SDS011;58088;51.186;17.130;2022-10-31T17:28:25;19.30;;;9.60;;
70532;SDS011;58088;51.186;17.130;2022-10-31T17:30:53;15.10;;;8.30;;
70532;SDS011;58088;51.186;17.130;2022-10-31T17:33:23;15.40;;;7.40;;
70532;SDS011;58088;51.186;17.130;2022-10-31T17:35:53;17.40;;;7.30;;
70532;SDS011;58088;51.186;17.130;2022-10-31T17:38:19;19.40;;;10.80;;
70532;SDS011;58088;51.186;17.130;2022-10-31T17:40:46;24.60;;;12.50;;
70532;SDS011;58088;51.186;17.130;2022-10-31T17:43:12;22.60;;;12.40;;
70532;SDS011;58088;51.186;17.130;2022-10-31T17:45:40;20.30;;;11.30;;
70532;SDS011;58088;51.186;17.130;2022-10-31T17:48:10;17.60;;;9.40;;